Time;durP1;ratioP1;P1;durP2;ratioP2;P2;SDS_P1;SDS_P2;PMS_P1;PMS_P2;Temp;Humidity;BMP_temperature;BMP_pressure;BME280_temperature;BME280_humidity;BME280_pressure;Samples;Min_cycle;Max_cycle;Signal;HPM_P1;HPM_P2
2023/02/24 00:02:04;;;;;;;45.70;21.80;;;3.20;99.90;;;;;;5052592;28;20199;-82
2023/02/24 00:04:38;;;;;;;47.27;23.03;;;3.20;99.90;;;;;;5051088;28;20290;-75
2023/02/24 00:07:31;;;;;;;44.60;22.10;;;3.20;99.90;;;;;;5021527;28;20226;-84
2023/02/24 00:09:58;;;;;;;48.17;21.53;;;3.30;99.90;;;;;;5025416;28;20196;-83
2023/02/24 00:12:24;;;;;;;46.13;22.03;;;3.40;99.90;;;;;;5035049;28;20192;-83
2023/02/24 00:14:51;;;;;;;46.00;22.37;;;3.50;99.90;;;;;;5032756;28;20200;-89
2023/02/24 00:17:18;;;;;;;47.17;23.07;;;3.50;99.90;;;;;;5033302;28;20249;-88
2023/02/24 00:19:45;;;;;;;49.07;23.00;;;3.50;99.90;;;;;;5035476;28;20204;-87
2023/02/24 00:22:12;;;;;;;46.23;22.63;;;3.60;99.90;;;;;;5035372;28;20240;-84
2023/02/24 00:24:39;;;;;;;46.60;22.23;;;3.70;99.90;;;;;;5035277;28;20200;-85
2023/02/24 00:27:06;;;;;;;48.13;22.60;;;3.70;99.90;;;;;;5036781;28;20192;-88
2023/02/24 00:29:36;;;;;;;51.23;23.13;;;3.70;99.90;;;;;;5035090;28;20235;-87
2023/02/24 00:32:06;;;;;;;47.03;22.23;;;3.70;99.90;;;;;;5035632;28;20665;-88
2023/02/24 00:34:36;;;;;;;49.80;23.03;;;3.70;99.90;;;;;;5035164;28;20223;-83
2023/02/24 00:37:07;;;;;;;50.50;23.17;;;3.70;99.90;;;;;;5037604;28;20204;-87
2023/02/24 00:39:40;;;;;;;49.93;23.03;;;3.70;99.90;;;;;;5032100;28;20200;-79
2023/02/24 00:42:07;;;;;;;49.03;23.20;;;3.60;99.90;;;;;;5025163;28;20204;-76
2023/02/24 00:44:35;;;;;;;49.40;24.03;;;3.60;99.90;;;;;;5032902;28;20192;-89
2023/02/24 00:47:05;;;;;;;48.60;24.03;;;3.60;99.90;;;;;;5033549;28;20192;-88
2023/02/24 00:49:34;;;;;;;50.87;23.47;;;3.70;99.90;;;;;;5027192;28;20683;-79
2023/02/24 00:52:03;;;;;;;50.77;23.67;;;3.70;99.90;;;;;;5024763;28;20615;-87
2023/02/24 00:54:31;;;;;;;51.83;23.83;;;3.70;99.90;;;;;;5031124;28;20214;-74
2023/02/24 00:56:58;;;;;;;50.17;22.83;;;3.60;99.90;;;;;;5033003;28;20192;-82
2023/02/24 00:59:24;;;;;;;48.07;22.57;;;3.60;99.90;;;;;;5033523;28;20207;-87
2023/02/24 01:01:53;;;;;;;48.27;23.37;;;3.70;99.90;;;;;;5035295;28;20227;-83
2023/02/24 01:04:21;;;;;;;50.90;23.60;;;3.70;99.90;;;;;;5034592;28;20192;-85
2023/02/24 01:06:58;;;;;;;47.47;22.63;;;3.70;99.90;;;;;;5034740;28;20576;-84
2023/02/24 01:09:28;;;;;;;51.53;24.03;;;3.70;99.90;;;;;;5034425;28;20193;-79
2023/02/24 01:14:48;;;;;;;46.13;22.87;;;3.60;99.90;;;;;;5033714;28;20282;-75
2023/02/24 01:17:17;;;;;;;50.00;23.77;;;3.60;99.90;;;;;;5034053;28;20319;-79
2023/02/24 01:19:47;;;;;;;50.03;23.53;;;3.70;99.90;;;;;;5033887;28;20291;-87
2023/02/24 01:22:16;;;;;;;47.93;22.97;;;3.70;99.90;;;;;;5035800;28;20234;-80
2023/02/24 01:24:44;;;;;;;47.00;22.83;;;3.70;99.90;;;;;;5032937;28;20206;-87
2023/02/24 01:27:12;;;;;;;50.57;24.20;;;3.70;99.90;;;;;;5032506;28;20194;-83
2023/02/24 01:29:40;;;;;;;52.40;23.27;;;3.80;99.90;;;;;;5032375;28;20196;-89
2023/02/24 01:32:17;;;;;;;47.50;22.80;;;3.80;99.90;;;;;;5032715;28;20200;-84
2023/02/24 01:34:46;;;;;;;53.70;24.60;;;3.90;99.90;;;;;;5015925;28;20561;-85
2023/02/24 01:37:15;;;;;;;51.23;23.50;;;3.90;99.90;;;;;;5033127;28;20201;-87
2023/02/24 01:39:46;;;;;;;51.90;24.27;;;3.90;99.90;;;;;;5032555;28;20196;-86
2023/02/24 01:42:15;;;;;;;47.13;22.67;;;3.90;99.90;;;;;;5032653;28;20298;-89
2023/02/24 01:44:42;;;;;;;51.53;23.80;;;3.90;99.90;;;;;;5016773;28;20224;-83
2023/02/24 01:47:10;;;;;;;50.30;23.97;;;3.90;99.90;;;;;;5042036;28;20328;-87
2023/02/24 01:49:41;;;;;;;48.83;23.60;;;4.00;99.90;;;;;;5039890;28;20188;-81
2023/02/24 01:52:12;;;;;;;51.33;23.67;;;4.00;99.90;;;;;;5033422;28;20206;-88
2023/02/24 01:54:58;;;;;;;53.20;25.33;;;3.90;99.90;;;;;;5038961;28;20248;-88
2023/02/24 01:57:28;;;;;;;47.70;23.30;;;4.00;99.90;;;;;;5033438;28;20225;-74
2023/02/24 02:00:00;;;;;;;49.10;24.43;;;4.00;99.90;;;;;;5032983;28;20201;-73
2023/02/24 02:02:28;;;;;;;53.33;24.50;;;4.00;99.90;;;;;;5031809;28;20724;-72
2023/02/24 02:05:04;;;;;;;47.90;23.70;;;4.10;99.90;;;;;;5031435;28;20200;-77
2023/02/24 02:07:31;;;;;;;54.70;24.97;;;4.10;99.90;;;;;;5033056;28;20233;-75
2023/02/24 02:10:02;;;;;;;46.87;23.93;;;4.10;99.90;;;;;;5032550;28;20198;-74
2023/02/24 02:12:35;;;;;;;46.60;23.20;;;4.20;99.90;;;;;;5031635;28;20208;-77
2023/02/24 02:15:05;;;;;;;50.73;23.43;;;4.30;99.90;;;;;;5014733;28;20197;-74
2023/02/24 02:17:47;;;;;;;52.23;23.90;;;4.40;99.90;;;;;;5032706;28;20210;-74
2023/02/24 02:20:22;;;;;;;45.27;22.70;;;4.40;99.90;;;;;;5014831;28;20558;-73
2023/02/24 02:23:08;;;;;;;48.07;24.40;;;4.30;99.90;;;;;;5031450;28;20194;-76
2023/02/24 02:25:38;;;;;;;53.90;24.03;;;4.40;99.90;;;;;;5031373;28;20219;-74
2023/02/24 02:28:44;;;;;;;49.97;24.23;;;4.30;99.90;;;;;;5033542;28;20654;-83
2023/02/24 02:31:45;;;;;;;46.10;22.57;;;4.40;99.90;;;;;;5032036;28;20202;-84
2023/02/24 02:34:21;;;;;;;46.57;22.63;;;4.40;99.90;;;;;;5031497;28;20633;-81
2023/02/24 02:37:10;;;;;;;46.80;23.20;;;4.40;99.90;;;;;;5032188;28;20193;-84
2023/02/24 02:39:40;;;;;;;50.00;23.37;;;4.40;99.90;;;;;;5033011;28;20615;-79
2023/02/24 02:42:35;;;;;;;46.63;23.07;;;4.40;99.90;;;;;;5042896;28;20245;-75
2023/02/24 02:45:12;;;;;;;49.03;23.47;;;4.40;99.90;;;;;;4983850;28;20211;-87
2023/02/24 02:48:07;;;;;;;50.43;22.70;;;4.50;99.90;;;;;;4966967;28;20207;-79
2023/02/24 02:50:47;;;;;;;43.13;22.50;;;4.50;99.90;;;;;;4985481;28;20212;-74
2023/02/24 02:53:54;;;;;;;53.07;24.33;;;4.50;99.90;;;;;;4965442;28;20191;-84
2023/02/24 02:56:30;;;;;;;49.77;24.00;;;4.50;99.90;;;;;;4971800;28;20589;-85
2023/02/24 02:58:59;;;;;;;47.93;23.10;;;4.50;99.90;;;;;;4955452;28;20568;-84
2023/02/24 03:01:32;;;;;;;46.93;24.67;;;4.50;99.90;;;;;;4973328;28;20191;-84
2023/02/24 03:04:04;;;;;;;45.93;23.33;;;4.50;99.90;;;;;;4958908;28;20213;-78
2023/02/24 03:06:47;;;;;;;48.70;24.10;;;4.50;99.90;;;;;;4974715;28;20639;-82
2023/02/24 03:09:21;;;;;;;49.90;24.23;;;4.60;99.90;;;;;;4959090;28;20604;-73
2023/02/24 03:11:53;;;;;;;47.10;24.77;;;4.60;99.90;;;;;;4975179;28;20208;-78
2023/02/24 03:14:25;;;;;;;50.90;25.53;;;4.60;99.90;;;;;;4974893;28;20217;-79
2023/02/24 03:16:55;;;;;;;50.97;24.63;;;4.60;99.90;;;;;;4975056;28;20302;-81
2023/02/24 03:19:36;;;;;;;51.37;25.60;;;4.60;99.90;;;;;;4974935;28;20206;-79
2023/02/24 03:22:13;;;;;;;52.60;24.50;;;4.50;99.90;;;;;;4986277;28;20297;-76
2023/02/24 03:24:41;;;;;;;50.67;25.10;;;4.60;99.90;;;;;;5028167;28;20198;-80
2023/02/24 03:27:30;;;;;;;51.83;25.80;;;4.50;99.90;;;;;;5034425;28;20240;-72
2023/02/24 03:30:08;;;;;;;50.43;25.37;;;4.60;99.90;;;;;;5034574;28;20197;-80
2023/02/24 03:33:08;;;;;;;56.60;26.13;;;4.60;99.90;;;;;;5034474;28;20289;-76
2023/02/24 03:35:41;;;;;;;55.03;26.13;;;4.60;99.90;;;;;;5033023;28;20232;-76
2023/02/24 03:38:09;;;;;;;58.57;27.57;;;4.60;99.90;;;;;;5033318;28;20261;-81
2023/02/24 03:40:37;;;;;;;57.40;26.60;;;4.60;99.90;;;;;;5023014;28;20191;-80
2023/02/24 03:43:21;;;;;;;56.17;27.53;;;4.60;99.90;;;;;;5021342;28;20209;-77
2023/02/24 03:45:48;;;;;;;58.67;27.43;;;4.60;99.90;;;;;;5039844;28;20231;-79
2023/02/24 03:48:16;;;;;;;59.07;27.67;;;4.60;99.90;;;;;;5037230;28;20198;-80
2023/02/24 03:50:43;;;;;;;62.83;29.27;;;4.50;99.90;;;;;;5034344;28;20321;-75
2023/02/24 03:53:43;;;;;;;64.70;30.03;;;4.50;99.90;;;;;;5033630;28;20208;-77
2023/02/24 03:56:57;;;;;;;62.13;28.50;;;4.50;99.90;;;;;;5017551;28;20205;-78
2023/02/24 03:59:43;;;;;;;63.83;29.57;;;4.50;99.90;;;;;;4976982;28;20206;-79
2023/02/24 04:02:39;;;;;;;59.43;28.17;;;4.50;99.90;;;;;;4967142;28;20540;-82
2023/02/24 04:05:20;;;;;;;71.70;31.30;;;4.60;99.90;;;;;;4916347;29;20224;-81
2023/02/24 04:07:59;;;;;;;60.57;29.20;;;4.50;99.90;;;;;;4916133;29;20217;-80
2023/02/24 04:10:51;;;;;;;63.47;29.80;;;4.60;99.90;;;;;;4916112;29;20228;-78
2023/02/24 04:13:42;;;;;;;67.47;31.23;;;4.60;99.90;;;;;;4915425;29;20729;-77
2023/02/24 04:16:27;;;;;;;64.00;30.43;;;4.60;99.90;;;;;;4912618;29;20213;-75
2023/02/24 04:19:02;;;;;;;60.57;29.77;;;4.60;99.90;;;;;;4908715;29;20205;-81
2023/02/24 04:21:31;;;;;;;64.20;30.60;;;4.60;99.90;;;;;;4901566;29;20208;-89
2023/02/24 04:24:05;;;;;;;70.47;31.67;;;4.60;99.90;;;;;;4912326;29;20232;-91
2023/02/24 04:26:39;;;;;;;69.27;31.73;;;4.60;99.90;;;;;;4918038;29;20308;-89
2023/02/24 04:29:08;;;;;;;67.43;32.07;;;4.60;99.90;;;;;;4918157;29;20748;-90
2023/02/24 04:31:37;;;;;;;71.13;32.43;;;4.70;99.90;;;;;;4903181;29;20207;-89
2023/02/24 04:34:08;;;;;;;73.60;33.37;;;4.70;99.90;;;;;;4962299;29;20692;-83
2023/02/24 04:36:37;;;;;;;69.53;33.47;;;4.70;99.90;;;;;;4952203;28;20204;-78
2023/02/24 04:39:04;;;;;;;75.73;33.70;;;4.70;99.90;;;;;;4958502;28;20276;-81
2023/02/24 04:41:30;;;;;;;76.17;34.90;;;4.70;99.90;;;;;;4993893;28;20285;-90
2023/02/24 04:43:57;;;;;;;74.63;33.67;;;4.70;99.90;;;;;;5043001;28;20205;-78
2023/02/24 04:46:24;;;;;;;74.10;34.87;;;4.70;99.90;;;;;;5038108;28;20230;-83
2023/02/24 04:48:51;;;;;;;77.73;35.43;;;4.70;99.90;;;;;;5038259;28;20205;-83
2023/02/24 04:51:19;;;;;;;75.17;35.10;;;4.80;99.90;;;;;;5069842;28;20200;-80
2023/02/24 04:53:48;;;;;;;70.70;34.13;;;4.80;99.90;;;;;;5049057;28;20272;-87
2023/02/24 04:56:17;;;;;;;80.67;36.27;;;4.80;99.90;;;;;;5035236;28;20200;-86
2023/02/24 04:58:45;;;;;;;79.50;36.27;;;4.80;99.90;;;;;;5037674;28;20219;-85
2023/02/24 05:01:12;;;;;;;78.83;36.43;;;4.80;99.90;;;;;;5039630;28;20279;-82
2023/02/24 05:03:42;;;;;;;83.83;38.07;;;4.90;99.90;;;;;;5032728;28;20702;-86
2023/02/24 05:06:16;;;;;;;83.10;36.77;;;4.90;99.90;;;;;;5034789;28;20203;-92
2023/02/24 05:08:44;;;;;;;80.93;38.30;;;4.90;99.90;;;;;;5001143;28;20218;-89
2023/02/24 05:11:15;;;;;;;86.30;38.77;;;4.90;99.90;;;;;;5019248;28;20214;-89
2023/02/24 05:13:45;;;;;;;78.00;37.00;;;5.00;99.90;;;;;;5034527;28;20649;-90
2023/02/24 05:16:15;;;;;;;86.03;38.10;;;5.00;99.90;;;;;;5037236;28;20645;-92
2023/02/24 05:18:43;;;;;;;90.23;38.40;;;5.00;99.90;;;;;;5038752;28;20688;-92
2023/02/24 05:24:03;;;;;;;82.43;38.03;;;5.10;99.90;;;;;;5032747;28;20209;-86
2023/02/24 05:26:30;;;;;;;84.77;38.43;;;5.00;99.90;;;;;;5031331;28;20224;-91
2023/02/24 05:29:00;;;;;;;91.27;39.47;;;5.10;99.90;;;;;;5049820;28;20289;-90
2023/02/24 05:31:29;;;;;;;95.77;41.13;;;5.10;99.90;;;;;;5052484;28;20194;-83
2023/02/24 05:34:01;;;;;;;95.27;41.17;;;5.10;99.90;;;;;;5041434;28;20265;-76
2023/02/24 05:36:32;;;;;;;91.30;40.07;;;5.10;99.90;;;;;;5047341;28;20211;-91
2023/02/24 05:39:20;;;;;;;91.93;40.23;;;5.10;99.90;;;;;;5056211;28;20208;-91
2023/02/24 05:41:48;;;;;;;93.97;40.07;;;5.20;99.90;;;;;;5054973;28;20212;-86
2023/02/24 05:44:22;;;;;;;93.63;40.63;;;5.20;99.90;;;;;;5045832;28;20195;-83
2023/02/24 05:46:57;;;;;;;99.47;40.40;;;5.20;99.90;;;;;;5070802;28;20221;-89
2023/02/24 05:49:32;;;;;;;87.70;40.27;;;5.20;99.90;;;;;;5054057;28;20200;-86
2023/02/24 05:52:06;;;;;;;93.03;40.73;;;5.20;99.90;;;;;;5037201;28;20209;-77
2023/02/24 05:54:39;;;;;;;98.73;42.27;;;5.20;99.90;;;;;;5024839;28;20301;-83
2023/02/24 05:57:23;;;;;;;91.03;41.13;;;5.20;99.90;;;;;;5026264;28;20194;-77
2023/02/24 05:59:52;;;;;;;91.43;40.27;;;5.30;99.90;;;;;;5036989;28;20197;-75
2023/02/24 06:02:26;;;;;;;93.43;40.67;;;5.30;99.90;;;;;;5049586;28;20215;-75
2023/02/24 06:04:54;;;;;;;93.37;40.60;;;5.40;99.90;;;;;;5056217;28;20211;-76
2023/02/24 06:07:33;;;;;;;96.00;41.27;;;5.40;99.90;;;;;;5056640;28;20232;-74
2023/02/24 06:10:00;;;;;;;100.47;41.60;;;5.40;99.90;;;;;;5052423;28;20193;-80
2023/02/24 06:12:32;;;;;;;94.13;40.20;;;5.40;99.90;;;;;;5033013;28;20244;-76
2023/02/24 06:14:59;;;;;;;101.63;41.63;;;5.50;99.90;;;;;;5032376;28;20288;-76
2023/02/24 06:17:27;;;;;;;99.03;41.47;;;5.50;99.90;;;;;;5033839;28;20247;-88
2023/02/24 06:19:54;;;;;;;92.77;41.37;;;5.50;99.90;;;;;;5034718;28;20613;-89
2023/02/24 06:22:23;;;;;;;102.83;41.77;;;5.60;99.90;;;;;;5048010;28;20210;-87
2023/02/24 06:24:52;;;;;;;96.17;40.47;;;5.60;99.90;;;;;;5045833;28;20543;-88
2023/02/24 06:27:20;;;;;;;94.60;40.83;;;5.60;99.90;;;;;;5044018;28;20691;-88
2023/02/24 06:29:49;;;;;;;101.03;41.70;;;5.60;99.90;;;;;;5044624;28;20206;-88
2023/02/24 06:32:23;;;;;;;103.17;41.47;;;5.60;99.90;;;;;;5049887;28;20205;-89
2023/02/24 06:34:51;;;;;;;102.37;41.93;;;5.60;99.90;;;;;;5034469;28;20225;-87
2023/02/24 06:37:18;;;;;;;99.30;41.27;;;5.70;99.90;;;;;;5032344;28;20210;-77
2023/02/24 06:39:45;;;;;;;99.80;42.10;;;5.70;99.90;;;;;;5033004;28;20641;-73
2023/02/24 06:42:12;;;;;;;96.67;40.37;;;5.80;99.90;;;;;;5031379;28;20249;-75
2023/02/24 06:44:40;;;;;;;94.40;39.80;;;5.80;99.90;;;;;;5031064;28;20245;-76
2023/02/24 06:47:12;;;;;;;98.50;39.87;;;5.80;99.90;;;;;;5031457;28;20237;-81
2023/02/24 06:49:40;;;;;;;97.97;40.37;;;5.80;99.90;;;;;;5031204;28;20225;-80
2023/02/24 06:52:07;;;;;;;96.23;40.70;;;5.80;99.90;;;;;;5014943;28;20204;-78
2023/02/24 06:54:34;;;;;;;96.30;40.33;;;5.90;99.90;;;;;;5030259;28;20682;-78
2023/02/24 06:57:02;;;;;;;99.00;40.63;;;5.90;99.90;;;;;;5047461;28;20220;-76
2023/02/24 06:59:30;;;;;;;94.00;40.37;;;5.90;99.90;;;;;;5031983;28;20213;-79
2023/02/24 07:02:00;;;;;;;95.00;39.80;;;5.90;99.90;;;;;;5031999;28;20210;-78
2023/02/24 07:04:28;;;;;;;92.40;38.57;;;6.00;99.90;;;;;;5030598;28;20198;-79
2023/02/24 07:07:01;;;;;;;93.63;38.43;;;6.00;99.90;;;;;;5030396;28;20232;-76
2023/02/24 07:09:30;;;;;;;90.40;38.67;;;6.00;99.90;;;;;;5027977;28;20230;-77
2023/02/24 07:12:01;;;;;;;90.13;37.70;;;6.00;99.90;;;;;;5027648;28;20203;-80
2023/02/24 07:14:31;;;;;;;88.03;38.47;;;6.00;99.90;;;;;;5033174;28;20190;-87
2023/02/24 07:16:58;;;;;;;82.20;37.07;;;6.00;99.90;;;;;;5014977;28;20219;-76
2023/02/24 07:19:28;;;;;;;87.00;37.17;;;6.10;99.90;;;;;;5033868;28;20286;-80
2023/02/24 07:22:00;;;;;;;88.40;35.93;;;6.10;99.90;;;;;;5032712;28;20706;-81
2023/02/24 07:24:44;;;;;;;86.63;36.30;;;6.20;99.90;;;;;;5032811;28;20225;-80
2023/02/24 07:27:20;;;;;;;82.07;36.00;;;6.20;99.90;;;;;;5031657;28;20229;-84
2023/02/24 07:29:49;;;;;;;80.10;33.70;;;6.20;99.90;;;;;;5030975;28;20210;-80
2023/02/24 07:32:24;;;;;;;77.90;34.00;;;6.20;99.90;;;;;;5031077;28;20245;-74
2023/02/24 07:34:51;;;;;;;75.43;34.17;;;6.20;99.90;;;;;;5030477;28;20227;-78
2023/02/24 07:37:19;;;;;;;79.20;34.90;;;6.20;99.90;;;;;;5030392;28;20204;-78
2023/02/24 07:39:46;;;;;;;76.90;33.47;;;6.30;99.90;;;;;;5031466;28;20194;-78
2023/02/24 07:42:13;;;;;;;81.00;34.17;;;6.30;99.90;;;;;;5030161;28;20256;-78
2023/02/24 07:44:43;;;;;;;77.17;33.83;;;6.20;99.90;;;;;;5030703;28;20297;-76
2023/02/24 07:47:10;;;;;;;77.63;33.47;;;6.30;99.90;;;;;;5032623;28;20222;-81
2023/02/24 07:49:39;;;;;;;79.27;33.70;;;6.30;99.90;;;;;;5040995;28;20198;-81
2023/02/24 07:52:07;;;;;;;77.50;33.10;;;6.30;99.90;;;;;;5051936;28;20201;-77
2023/02/24 07:54:38;;;;;;;74.50;32.17;;;6.30;99.90;;;;;;5057021;28;20190;-82
2023/02/24 07:57:12;;;;;;;77.90;33.33;;;6.30;99.90;;;;;;5062851;28;20199;-83
2023/02/24 07:59:45;;;;;;;71.23;32.00;;;6.40;99.90;;;;;;5063933;28;20200;-84
2023/02/24 08:02:14;;;;;;;73.23;32.37;;;6.40;99.90;;;;;;5056238;28;20205;-79
2023/02/24 08:04:48;;;;;;;73.10;32.47;;;6.40;99.90;;;;;;5054948;28;20185;-82
2023/02/24 08:07:24;;;;;;;71.13;32.30;;;6.40;99.90;;;;;;5053584;28;20226;-81
2023/02/24 08:10:22;;;;;;;74.53;33.37;;;6.40;99.90;;;;;;5034241;28;20296;-84
2023/02/24 08:13:01;;;;;;;72.83;31.63;;;6.50;99.90;;;;;;5034800;28;20206;-76
2023/02/24 08:15:32;;;;;;;73.20;32.17;;;6.50;99.90;;;;;;5033440;28;20199;-75
2023/02/24 08:18:01;;;;;;;68.70;30.73;;;6.50;99.90;;;;;;5033302;28;20222;-75
2023/02/24 08:20:51;;;;;;;74.67;32.00;;;6.50;99.90;;;;;;5033646;28;20283;-77
2023/02/24 08:23:18;;;;;;;68.50;30.83;;;6.50;99.90;;;;;;5033487;28;20203;-79
2023/02/24 08:25:46;;;;;;;74.83;31.30;;;6.50;99.90;;;;;;5034587;28;20199;-80
2023/02/24 08:28:13;;;;;;;68.07;29.60;;;6.60;99.90;;;;;;5035116;28;20226;-84
2023/02/24 08:30:45;;;;;;;70.10;30.17;;;6.50;99.90;;;;;;5034868;28;20202;-82
2023/02/24 08:33:18;;;;;;;65.20;29.60;;;6.50;99.90;;;;;;5033195;28;20225;-78
2023/02/24 08:35:50;;;;;;;66.10;30.57;;;6.60;99.90;;;;;;5034204;28;20753;-77
2023/02/24 08:38:19;;;;;;;62.33;29.37;;;6.60;99.90;;;;;;5033614;28;20192;-78
2023/02/24 08:40:52;;;;;;;70.63;29.07;;;6.60;99.90;;;;;;5033159;28;20685;-76
2023/02/24 08:46:12;;;;;;;57.33;26.77;;;6.80;99.90;;;;;;5033645;28;20199;-75
2023/02/24 08:48:41;;;;;;;55.17;26.73;;;6.80;99.90;;;;;;5034649;28;20663;-75
2023/02/24 08:51:11;;;;;;;60.57;27.30;;;6.70;99.90;;;;;;5034170;28;20203;-76
2023/02/24 08:53:41;;;;;;;57.53;27.07;;;6.80;99.90;;;;;;5022443;28;20207;-78
2023/02/24 08:56:10;;;;;;;52.10;25.73;;;6.80;99.90;;;;;;5014946;28;20214;-75
2023/02/24 08:58:48;;;;;;;51.60;24.77;;;6.90;99.90;;;;;;5044150;28;20674;-75
2023/02/24 09:01:17;;;;;;;52.93;26.00;;;6.90;99.90;;;;;;5038355;28;20225;-76
2023/02/24 09:03:47;;;;;;;46.13;23.67;;;7.10;99.90;;;;;;5053221;28;20626;-73
2023/02/24 09:06:24;;;;;;;49.87;24.33;;;7.00;99.90;;;;;;5052958;28;20285;-75
2023/02/24 09:11:46;;;;;;;46.37;23.20;;;7.00;99.90;;;;;;5014483;28;20191;-76
2023/02/24 09:14:19;;;;;;;46.57;23.53;;;7.00;99.90;;;;;;5015234;28;20239;-83
2023/02/24 09:17:01;;;;;;;45.13;23.20;;;7.00;99.90;;;;;;5014882;28;20185;-84
2023/02/24 09:22:31;;;;;;;44.73;22.83;;;6.90;99.90;;;;;;5034936;28;20201;-78
2023/02/24 09:25:22;;;;;;;44.57;22.67;;;6.90;99.90;;;;;;5041535;28;20202;-80
2023/02/24 09:28:16;;;;;;;43.37;22.20;;;7.00;99.90;;;;;;5034289;28;20234;-85
2023/02/24 09:30:54;;;;;;;41.40;22.27;;;7.00;99.90;;;;;;5034512;28;20518;-78
2023/02/24 09:33:38;;;;;;;45.33;22.90;;;7.10;99.90;;;;;;5035588;28;20198;-82
2023/02/24 09:36:18;;;;;;;43.00;22.13;;;7.10;99.90;;;;;;5037643;28;20196;-84
2023/02/24 09:41:52;;;;;;;45.83;22.77;;;7.00;99.90;;;;;;5033959;28;20563;-84
2023/02/24 09:44:23;;;;;;;43.70;22.07;;;7.10;99.90;;;;;;5035931;28;20215;-87
2023/02/24 09:47:29;;;;;;;41.73;21.53;;;7.10;99.90;;;;;;5036693;28;20210;-85
2023/02/24 09:50:04;;;;;;;43.20;20.90;;;7.10;99.90;;;;;;5036606;28;20194;-78
2023/02/24 09:52:40;;;;;;;40.07;21.50;;;7.10;99.90;;;;;;5017984;28;20199;-81
2023/02/24 09:55:23;;;;;;;42.10;21.07;;;7.10;99.90;;;;;;5038477;28;20191;-83
2023/02/24 10:00:54;;;;;;;40.50;20.97;;;7.10;99.90;;;;;;5037141;28;20202;-83
2023/02/24 10:03:46;;;;;;;44.70;22.37;;;7.20;99.90;;;;;;5041866;28;20226;-79
2023/02/24 10:06:34;;;;;;;42.77;20.60;;;7.20;99.90;;;;;;5043244;28;20233;-80
2023/02/24 10:09:20;;;;;;;44.70;21.90;;;7.10;99.90;;;;;;5034587;28;20214;-83
2023/02/24 10:11:54;;;;;;;45.37;21.30;;;7.00;99.90;;;;;;5037610;28;20195;-81
2023/02/24 10:14:37;;;;;;;46.33;22.60;;;7.00;99.90;;;;;;5031585;28;20260;-82
2023/02/24 10:17:21;;;;;;;43.47;22.40;;;7.10;99.90;;;;;;5032961;28;20229;-83
2023/02/24 10:20:27;;;;;;;40.67;20.03;;;7.20;99.90;;;;;;5032247;28;20205;-78
2023/02/24 10:23:04;;;;;;;41.37;19.73;;;7.20;99.90;;;;;;5032146;28;20256;-80
2023/02/24 10:25:52;;;;;;;45.00;21.47;;;7.20;99.90;;;;;;5031646;28;20217;-78
2023/02/24 10:28:38;;;;;;;44.80;21.17;;;7.20;99.90;;;;;;5031484;28;20222;-80
2023/02/24 10:31:29;;;;;;;43.43;19.90;;;7.20;99.90;;;;;;5031416;28;20206;-79
2023/02/24 10:34:07;;;;;;;37.47;19.73;;;7.10;99.90;;;;;;5032332;28;20225;-82
2023/02/24 10:36:35;;;;;;;36.20;18.80;;;7.20;99.90;;;;;;5030943;28;20195;-79
2023/02/24 10:39:15;;;;;;;37.90;19.20;;;7.10;99.90;;;;;;5030973;28;20204;-80
2023/02/24 10:41:48;;;;;;;33.50;17.47;;;7.00;99.90;;;;;;5032814;28;20205;-82
2023/02/24 10:44:23;;;;;;;31.33;16.40;;;7.00;99.90;;;;;;5031294;28;20538;-76
2023/02/24 10:47:10;;;;;;;36.00;17.80;;;6.90;99.90;;;;;;5032237;28;20554;-77
2023/02/24 10:49:56;;;;;;;33.70;16.73;;;6.90;99.90;;;;;;5031251;28;20192;-77
2023/02/24 10:56:25;;;;;;;31.77;16.47;;;7.00;99.90;;;;;;4993783;28;20203;-75
2023/02/24 10:58:36;;;;;;;28.87;13.97;;;7.00;99.90;;;;;;5003390;28;21039;-78
2023/02/24 11:01:53;;;;;;;25.03;12.90;;;6.80;99.90;;;;;;4993873;28;20239;-77
2023/02/24 11:07:23;;;;;;;27.67;13.10;;;6.50;99.90;;;;;;4916690;29;20236;-76
2023/02/24 11:10:12;;;;;;;25.40;11.60;;;6.60;99.90;;;;;;4932562;29;20586;-75
2023/02/24 11:18:38;;;;;;;18.37;7.63;;;6.40;99.90;;;;;;4932573;29;20321;-81
2023/02/24 11:21:08;;;;;;;16.50;7.57;;;6.40;99.90;;;;;;4932810;29;20200;-76
2023/02/24 11:23:41;;;;;;;17.07;8.73;;;6.40;99.90;;;;;;4936964;29;20662;-81
2023/02/24 11:26:08;;;;;;;17.17;7.00;;;6.40;99.90;;;;;;4920837;29;20208;-77
2023/02/24 11:28:42;;;;;;;12.97;6.50;;;6.40;99.90;;;;;;4921046;29;20229;-81
2023/02/24 11:31:16;;;;;;;14.77;6.63;;;6.30;99.90;;;;;;4921425;28;20205;-78
2023/02/24 11:33:56;;;;;;;12.67;6.20;;;6.40;99.90;;;;;;4958897;28;20725;-84
2023/02/24 11:36:28;;;;;;;13.40;6.23;;;6.40;99.90;;;;;;4977169;28;20210;-80
2023/02/24 11:39:21;;;;;;;16.10;6.97;;;6.40;99.90;;;;;;4959012;28;20652;-77
2023/02/24 11:41:54;;;;;;;11.93;6.33;;;6.50;99.90;;;;;;4992264;28;20206;-83
2023/02/24 11:44:57;;;;;;;14.47;6.33;;;6.40;99.90;;;;;;4996976;28;20196;-79
2023/02/24 11:47:35;;;;;;;14.00;6.73;;;6.40;99.90;;;;;;4996897;28;20697;-74
2023/02/24 11:50:22;;;;;;;12.33;6.20;;;6.40;99.90;;;;;;4986134;28;20701;-77
2023/02/24 11:52:53;;;;;;;16.43;6.00;;;6.40;99.90;;;;;;5016237;28;20201;-80
2023/02/24 11:55:37;;;;;;;13.53;6.30;;;6.40;99.90;;;;;;5033653;28;20207;-75
2023/02/24 11:58:28;;;;;;;12.20;5.90;;;6.30;99.90;;;;;;5035372;28;20264;-80
2023/02/24 12:01:32;;;;;;;11.13;5.70;;;6.50;99.90;;;;;;5035104;28;20187;-75
2023/02/24 12:04:16;;;;;;;11.93;5.57;;;6.50;99.90;;;;;;4954309;28;20212;-77
2023/02/24 12:07:04;;;;;;;17.17;6.33;;;6.40;99.90;;;;;;4942245;29;20294;-76
2023/02/24 12:10:00;;;;;;;10.87;6.00;;;6.50;99.90;;;;;;4948960;29;20225;-76
2023/02/24 12:13:07;;;;;;;13.70;6.03;;;6.50;99.90;;;;;;4920788;29;20209;-79
2023/02/24 12:15:57;;;;;;;11.83;6.53;;;6.60;99.90;;;;;;4919636;29;20953;-81
2023/02/24 12:18:38;;;;;;;14.13;6.33;;;6.80;99.90;;;;;;4919724;29;20223;-81
2023/02/24 12:21:17;;;;;;;11.33;6.13;;;6.90;99.90;;;;;;4944504;28;20209;-77
2023/02/24 12:23:47;;;;;;;16.17;6.73;;;7.00;99.90;;;;;;4939011;29;20796;-81
2023/02/24 12:26:28;;;;;;;13.83;6.00;;;7.00;99.90;;;;;;4954301;29;20698;-83
2023/02/24 12:29:19;;;;;;;12.77;6.13;;;7.00;99.90;;;;;;4954688;29;20231;-83
2023/02/24 12:32:09;;;;;;;12.20;6.40;;;7.20;99.90;;;;;;4955154;29;20689;-83
2023/02/24 12:34:59;;;;;;;10.93;5.93;;;7.40;99.90;;;;;;4953008;28;20233;-81
2023/02/24 12:37:57;;;;;;;13.53;6.43;;;7.60;99.90;;;;;;4939751;29;20228;-83
2023/02/24 12:40:52;;;;;;;12.33;6.67;;;7.50;99.90;;;;;;4981477;28;20213;-77
2023/02/24 12:43:30;;;;;;;13.50;7.07;;;7.50;99.90;;;;;;5033217;28;20195;-80
2023/02/24 12:46:03;;;;;;;15.93;7.57;;;7.50;99.90;;;;;;5036375;28;20207;-77
2023/02/24 12:48:45;;;;;;;16.70;8.03;;;7.60;99.90;;;;;;5036121;28;20258;-81
2023/02/24 12:51:18;;;;;;;13.97;7.60;;;7.70;99.90;;;;;;5034113;28;20325;-83
2023/02/24 12:54:11;;;;;;;14.77;7.97;;;7.60;99.90;;;;;;5035594;28;20199;-78
2023/02/24 12:57:00;;;;;;;16.50;7.97;;;7.50;99.90;;;;;;5035194;28;20196;-77
2023/02/24 12:59:32;;;;;;;17.50;8.00;;;7.40;99.90;;;;;;5033473;28;20216;-79
2023/02/24 13:02:33;;;;;;;13.97;7.73;;;7.40;99.90;;;;;;5034192;28;20240;-77
2023/02/24 13:05:15;;;;;;;15.47;7.57;;;7.30;99.90;;;;;;5016321;28;20226;-78
2023/02/24 13:08:00;;;;;;;18.13;7.77;;;7.30;99.90;;;;;;5026925;28;20203;-82
2023/02/24 13:10:48;;;;;;;16.73;8.13;;;7.20;99.90;;;;;;5013054;28;20207;-78
2023/02/24 13:13:26;;;;;;;18.97;7.97;;;7.20;99.90;;;;;;5012864;28;20551;-79
2023/02/24 13:15:56;;;;;;;16.93;8.20;;;7.20;99.90;;;;;;5028633;28;20558;-84
2023/02/24 13:18:32;;;;;;;17.60;8.40;;;7.30;99.90;;;;;;5032528;28;20592;-80
2023/02/24 13:21:01;;;;;;;18.97;8.53;;;7.30;99.90;;;;;;5032248;28;20194;-82
2023/02/24 13:23:30;;;;;;;18.50;8.43;;;7.30;99.90;;;;;;5015330;28;20549;-79
2023/02/24 13:25:58;;;;;;;18.37;8.10;;;7.30;99.90;;;;;;5018961;28;20308;-80
2023/02/24 13:28:32;;;;;;;17.40;8.70;;;7.40;99.90;;;;;;5035429;28;20217;-77
2023/02/24 13:31:08;;;;;;;17.00;8.60;;;7.70;99.90;;;;;;5032877;28;20207;-79
2023/02/24 13:33:40;;;;;;;15.87;8.27;;;7.70;99.90;;;;;;5033116;28;20261;-82
2023/02/24 13:36:20;;;;;;;16.83;8.17;;;7.70;99.90;;;;;;5033692;28;20610;-80
2023/02/24 13:38:51;;;;;;;16.70;7.80;;;7.60;99.90;;;;;;5033365;28;20224;-80
2023/02/24 13:41:32;;;;;;;17.63;8.37;;;7.50;99.90;;;;;;5034069;28;20206;-77
2023/02/24 13:44:19;;;;;;;17.60;8.53;;;7.70;99.90;;;;;;5015692;28;20326;-79
2023/02/24 13:47:11;;;;;;;16.97;7.87;;;7.70;99.90;;;;;;5031941;28;20563;-82
2023/02/24 13:49:47;;;;;;;17.03;8.67;;;7.60;99.90;;;;;;5031807;28;20265;-81
2023/02/24 13:52:41;;;;;;;22.00;8.93;;;7.60;99.90;;;;;;5032158;28;20202;-84
2023/02/24 13:55:20;;;;;;;19.20;9.63;;;7.70;99.90;;;;;;5031643;28;20552;-79